EZY41CA EGKK-LBSF
Flight info
| Callsign | EZY41CA |
|---|---|
| Flight time | N/A |
| Altitude | 37000 |
| Route | ODVIK Y311 DVR UL9 KONAN DCT KOK UL607 FERDI DCT REMBA DCT SPI DCT ULNOK DCT VIBOM DCT NOMBO DCT RIDAR DCT LATLO DCT OBEDI DCT CEPRA DCT PODET DCT MOSAV DCT NISVA |
| Aircraft | A320/M-SDE2E3FGHIJ1RWXYZ/LB1 |
Departure
| Time | 2026-05-07 05:47 |
|---|---|
| Airport | London Gatwick Airport (EGKK) |
Arrival
| Time | N/A |
|---|---|
| Airport | Sofia Airport (LBSF) |
| Time | Latitude | Longitude | Altitude | Speed | Heading |
|---|---|---|---|---|---|
| 2026-05-07 05:15 | 51.15573 | -0.17756 | 206 ft | 0 kts | 348° |
| 2026-05-07 05:35 | 51.15568 | -0.17754 | 204 ft | 2 kts | 347° |
| 2026-05-07 05:35 | 51.15549 | -0.17746 | 216 ft | 3 kts | 340° |
| 2026-05-07 05:35 | 51.15531 | -0.17734 | 214 ft | 3 kts | 327° |
| 2026-05-07 05:36 | 51.15516 | -0.17715 | 216 ft | 3 kts | 294° |
| 2026-05-07 05:36 | 51.15513 | -0.17695 | 212 ft | 1 kts | 257° |
| 2026-05-07 05:36 | 51.15513 | -0.17693 | 212 ft | 0 kts | 257° |
| 2026-05-07 05:39 | 51.15513 | -0.17696 | 204 ft | 2 kts | 257° |
| 2026-05-07 05:39 | 51.15506 | -0.17746 | 204 ft | 8 kts | 257° |
| 2026-05-07 05:39 | 51.15492 | -0.17845 | 204 ft | 9 kts | 258° |
| 2026-05-07 05:39 | 51.15481 | -0.17933 | 206 ft | 9 kts | 258° |
| 2026-05-07 05:40 | 51.15466 | -0.18041 | 204 ft | 10 kts | 258° |
| 2026-05-07 05:40 | 51.15453 | -0.18139 | 204 ft | 8 kts | 258° |
| 2026-05-07 05:40 | 51.15429 | -0.18259 | 208 ft | 14 kts | 229° |
| 2026-05-07 05:40 | 51.15345 | -0.18262 | 213 ft | 12 kts | 168° |
| 2026-05-07 05:41 | 51.15273 | -0.18237 | 215 ft | 10 kts | 167° |
| 2026-05-07 05:41 | 51.15205 | -0.18234 | 208 ft | 13 kts | 210° |
| 2026-05-07 05:41 | 51.15179 | -0.18388 | 207 ft | 14 kts | 257° |
| 2026-05-07 05:41 | 51.15158 | -0.18531 | 203 ft | 12 kts | 257° |
| 2026-05-07 05:42 | 51.15141 | -0.18655 | 203 ft | 11 kts | 258° |
| 2026-05-07 05:42 | 51.15126 | -0.18767 | 207 ft | 13 kts | 257° |
| 2026-05-07 05:42 | 51.15099 | -0.18959 | 210 ft | 20 kts | 257° |
| 2026-05-07 05:42 | 51.15069 | -0.19180 | 204 ft | 21 kts | 258° |
| 2026-05-07 05:43 | 51.15038 | -0.19411 | 207 ft | 22 kts | 258° |
| 2026-05-07 05:43 | 51.15005 | -0.19653 | 208 ft | 23 kts | 258° |
| 2026-05-07 05:43 | 51.14970 | -0.19905 | 204 ft | 24 kts | 257° |
| 2026-05-07 05:43 | 51.14932 | -0.20169 | 203 ft | 24 kts | 257° |
| 2026-05-07 05:44 | 51.14896 | -0.20430 | 206 ft | 25 kts | 257° |
| 2026-05-07 05:44 | 51.14859 | -0.20687 | 208 ft | 23 kts | 257° |
| 2026-05-07 05:44 | 51.14823 | -0.20942 | 208 ft | 23 kts | 257° |
| 2026-05-07 05:44 | 51.14790 | -0.21156 | 209 ft | 16 kts | 248° |
| 2026-05-07 05:45 | 51.14765 | -0.21320 | 213 ft | 14 kts | 258° |
| 2026-05-07 05:45 | 51.14714 | -0.21406 | 213 ft | 10 kts | 184° |
| 2026-05-07 05:45 | 51.14666 | -0.21368 | 212 ft | 6 kts | 138° |
| 2026-05-07 05:45 | 51.14631 | -0.21334 | 204 ft | 7 kts | 162° |
| 2026-05-07 05:46 | 51.14571 | -0.21306 | 205 ft | 9 kts | 157° |
| 2026-05-07 05:46 | 51.14527 | -0.21240 | 206 ft | 9 kts | 118° |
| 2026-05-07 05:46 | 51.14521 | -0.21159 | 204 ft | 6 kts | 78° |
| 2026-05-07 05:46 | 51.14531 | -0.21083 | 207 ft | 19 kts | 78° |
| 2026-05-07 05:47 | 51.14617 | -0.20472 | 207 ft | 91 kts | 77° |
| 2026-05-07 05:47 | 51.14791 | -0.19177 | 211 ft | 146 kts | 77° |
| 2026-05-07 05:47 | 51.15026 | -0.17427 | 491 ft | 164 kts | 78° |
| 2026-05-07 05:47 | 51.15263 | -0.15636 | 1096 ft | 167 kts | 78° |
| 2026-05-07 05:48 | 51.15515 | -0.13775 | 1599 ft | 176 kts | 78° |
| 2026-05-07 05:48 | 51.15792 | -0.11768 | 1895 ft | 197 kts | 78° |
| 2026-05-07 05:48 | 51.16074 | -0.09749 | 2151 ft | 218 kts | 78° |
| 2026-05-07 05:48 | 51.16419 | -0.07275 | 2602 ft | 238 kts | 78° |
| 2026-05-07 05:49 | 51.16784 | -0.04603 | 3158 ft | 253 kts | 80° |
| 2026-05-07 05:49 | 51.16882 | -0.01786 | 3942 ft | 257 kts | 91° |
| 2026-05-07 05:49 | 51.16845 | 0.01083 | 4760 ft | 262 kts | 91° |
| 2026-05-07 05:49 | 51.16790 | 0.04008 | 5543 ft | 266 kts | 92° |
| 2026-05-07 05:50 | 51.16728 | 0.06992 | 5906 ft | 271 kts | 92° |
| 2026-05-07 05:50 | 51.16664 | 0.09985 | 6005 ft | 270 kts | 92° |
| 2026-05-07 05:50 | 51.16600 | 0.12990 | 6351 ft | 273 kts | 92° |
| 2026-05-07 05:50 | 51.16550 | 0.15446 | 7034 ft | 274 kts | 92° |
| 2026-05-07 05:51 | 51.16522 | 0.18504 | 7803 ft | 278 kts | 90° |
| 2026-05-07 05:51 | 51.16526 | 0.21602 | 8547 ft | 282 kts | 90° |
| 2026-05-07 05:51 | 51.16541 | 0.24746 | 9292 ft | 285 kts | 90° |
| 2026-05-07 05:51 | 51.16560 | 0.27926 | 10024 ft | 289 kts | 89° |
| 2026-05-07 05:52 | 51.16577 | 0.31150 | 10724 ft | 293 kts | 89° |
| 2026-05-07 05:52 | 51.16589 | 0.34414 | 11406 ft | 297 kts | 89° |
| 2026-05-07 05:52 | 51.16598 | 0.37725 | 12069 ft | 301 kts | 89° |
| 2026-05-07 05:52 | 51.16600 | 0.41082 | 12725 ft | 305 kts | 89° |
| 2026-05-07 05:53 | 51.16600 | 0.44475 | 13368 ft | 308 kts | 89° |
| 2026-05-07 05:53 | 51.16598 | 0.47904 | 14001 ft | 312 kts | 90° |
| 2026-05-07 05:53 | 51.16596 | 0.51424 | 14321 ft | 327 kts | 90° |
| 2026-05-07 05:53 | 51.16594 | 0.55163 | 14455 ft | 347 kts | 90° |
| 2026-05-07 05:54 | 51.16592 | 0.59111 | 14593 ft | 366 kts | 90° |
| 2026-05-07 05:54 | 51.16588 | 0.63218 | 14991 ft | 374 kts | 90° |
| 2026-05-07 05:54 | 51.16581 | 0.67394 | 15525 ft | 379 kts | 90° |
| 2026-05-07 05:54 | 51.16575 | 0.71614 | 16071 ft | 382 kts | 90° |
| 2026-05-07 05:55 | 51.16567 | 0.75870 | 16601 ft | 386 kts | 90° |
| 2026-05-07 05:55 | 51.16556 | 0.80163 | 17154 ft | 389 kts | 90° |
| 2026-05-07 05:55 | 51.16542 | 0.84498 | 17677 ft | 393 kts | 90° |
| 2026-05-07 05:55 | 51.16528 | 0.88863 | 18187 ft | 396 kts | 90° |
| 2026-05-07 05:56 | 51.16510 | 0.93268 | 18707 ft | 399 kts | 90° |
| 2026-05-07 05:56 | 51.16490 | 0.97701 | 19221 ft | 402 kts | 90° |
| 2026-05-07 05:56 | 51.16468 | 1.02173 | 19726 ft | 405 kts | 90° |
| 2026-05-07 05:56 | 51.16448 | 1.06672 | 20232 ft | 408 kts | 90° |
| 2026-05-07 05:57 | 51.16427 | 1.11148 | 20708 ft | 411 kts | 90° |
| 2026-05-07 05:57 | 51.16401 | 1.15711 | 21179 ft | 413 kts | 90° |
| 2026-05-07 05:57 | 51.16373 | 1.20310 | 21617 ft | 417 kts | 90° |
| 2026-05-07 05:57 | 51.16343 | 1.24936 | 22045 ft | 419 kts | 90° |
| 2026-05-07 05:58 | 51.16311 | 1.29600 | 22461 ft | 422 kts | 90° |
| 2026-05-07 05:58 | 51.16276 | 1.34294 | 22875 ft | 425 kts | 90° |